createdAt,value
2019-03-19T00:00:27.430Z,2.20
2019-03-19T00:02:58.035Z,2.20
2019-03-19T00:05:28.685Z,2.10
2019-03-19T00:07:59.512Z,2.10
2019-03-19T00:10:30.203Z,2.00
2019-03-19T00:13:01.185Z,1.90
2019-03-19T00:15:31.788Z,2.00
2019-03-19T00:18:02.509Z,2.10
2019-03-19T00:20:33.092Z,2.20
2019-03-19T00:23:03.685Z,2.20
2019-03-19T00:25:34.718Z,2.10
2019-03-19T00:28:05.488Z,2.10
2019-03-19T00:30:36.088Z,2.20
2019-03-19T00:33:06.920Z,2.20
2019-03-19T00:35:37.652Z,2.20
2019-03-19T00:38:08.794Z,2.30
2019-03-19T00:40:39.398Z,2.30
2019-03-19T00:43:10.370Z,2.30
2019-03-19T00:45:40.968Z,2.30
2019-03-19T00:48:11.866Z,2.20
2019-03-19T00:50:42.569Z,2.30
2019-03-19T00:53:13.662Z,2.30
2019-03-19T00:55:44.263Z,2.30
2019-03-19T00:58:14.956Z,2.40
2019-03-19T01:00:45.579Z,2.30
2019-03-19T01:03:16.293Z,2.40
2019-03-19T01:05:46.988Z,2.40
2019-03-19T01:08:17.689Z,2.40
2019-03-19T01:10:48.272Z,2.40
2019-03-19T01:13:19.157Z,2.40
2019-03-19T01:15:49.874Z,2.40
2019-03-19T01:18:20.570Z,2.40
2019-03-19T01:20:51.174Z,2.40
2019-03-19T01:23:21.895Z,2.40
2019-03-19T01:25:55.515Z,2.30
2019-03-19T01:28:24.832Z,2.20
2019-03-19T01:30:55.437Z,2.20
2019-03-19T01:33:26.150Z,2.20
2019-03-19T01:35:56.743Z,2.20
2019-03-19T01:38:27.411Z,2.20
2019-03-19T01:40:58.040Z,2.10
2019-03-19T01:43:28.645Z,2.10
2019-03-19T01:45:59.230Z,2.10
2019-03-19T01:48:29.934Z,2.00
2019-03-19T01:51:00.523Z,1.90
2019-03-19T01:53:31.506Z,1.90
2019-03-19T01:56:05.369Z,1.80
2019-03-19T01:58:34.470Z,1.80
2019-03-19T02:01:05.351Z,1.80
2019-03-19T02:03:35.983Z,1.70
2019-03-19T02:06:06.572Z,1.70
2019-03-19T02:08:37.513Z,1.70
2019-03-19T02:11:08.090Z,1.60
2019-03-19T02:13:38.694Z,1.40
2019-03-19T02:16:09.412Z,1.50
2019-03-19T02:18:40.005Z,1.40
2019-03-19T02:21:10.945Z,1.30
2019-03-19T02:23:42.588Z,1.30
2019-03-19T02:26:16.870Z,1.30
2019-03-19T02:28:45.530Z,1.20
2019-03-19T02:31:16.332Z,1.10
2019-03-19T02:33:47.022Z,1.10
2019-03-19T02:36:17.914Z,1.00
2019-03-19T02:38:48.898Z,1.00
2019-03-19T02:41:19.750Z,0.90
2019-03-19T02:43:50.372Z,0.90
2019-03-19T02:46:20.997Z,0.90
2019-03-19T02:48:51.742Z,1.10
2019-03-19T02:51:22.335Z,1.10
2019-03-19T02:53:53.307Z,1.20
2019-03-19T02:56:32.362Z,1.30
2019-03-19T02:58:56.252Z,1.40
2019-03-19T03:01:27.159Z,1.50
2019-03-19T03:03:57.875Z,1.60
2019-03-19T03:06:28.459Z,1.70
2019-03-19T03:08:59.232Z,1.70
2019-03-19T03:11:29.817Z,1.70
2019-03-19T03:14:00.393Z,1.60
2019-03-19T03:16:31.007Z,1.50
2019-03-19T03:19:01.590Z,1.50
2019-03-19T03:21:34.571Z,1.50
2019-03-19T03:24:05.217Z,1.40
2019-03-19T03:26:47.009Z,1.30
2019-03-19T03:29:08.916Z,1.30
2019-03-19T03:31:39.528Z,1.30
2019-03-19T03:34:10.513Z,1.40
2019-03-19T03:36:41.271Z,1.40
2019-03-19T03:39:12.559Z,1.30
2019-03-19T03:41:43.287Z,1.30
2019-03-19T03:44:14.402Z,1.20
2019-03-19T03:46:45.038Z,1.20
2019-03-19T03:49:16.074Z,1.10
2019-03-19T03:51:46.688Z,1.10
2019-03-19T03:54:17.285Z,1.10
2019-03-19T03:57:01.291Z,1.10
2019-03-19T03:59:20.286Z,1.00
2019-03-19T04:01:50.907Z,1.00
2019-03-19T04:04:21.587Z,1.00
2019-03-19T04:06:52.267Z,0.90
2019-03-19T04:09:22.877Z,0.90
2019-03-19T04:11:53.493Z,0.90
2019-03-19T04:14:24.086Z,0.90
2019-03-19T04:16:54.820Z,0.90
2019-03-19T04:19:25.453Z,0.90
2019-03-19T04:21:56.394Z,0.90
2019-03-19T04:24:27.093Z,0.90
2019-03-19T04:26:57.720Z,0.80
2019-03-19T04:29:28.365Z,0.70
2019-03-19T04:31:59.064Z,0.60
2019-03-19T04:34:30.581Z,0.50
2019-03-19T04:37:01.185Z,0.40
2019-03-19T04:39:31.864Z,0.30
2019-03-19T04:42:02.462Z,0.10
2019-03-19T04:44:33.066Z,0.10
2019-03-19T04:47:03.928Z,0.10
2019-03-19T04:49:34.634Z,0.10
2019-03-19T04:52:05.475Z,0.10
2019-03-19T04:54:36.170Z,-0.10
2019-03-19T04:57:06.770Z,-0.20
2019-03-19T04:59:37.359Z,-0.20
2019-03-19T05:02:08.068Z,-0.30
2019-03-19T05:04:38.649Z,-0.40
2019-03-19T05:07:09.370Z,-0.40
2019-03-19T05:09:40.054Z,-0.40
2019-03-19T05:12:10.800Z,-0.40
2019-03-19T05:14:41.480Z,-0.30
2019-03-19T05:17:12.069Z,-0.30
2019-03-19T05:19:42.685Z,-0.30
2019-03-19T05:22:13.314Z,-0.30
2019-03-19T05:24:43.907Z,-0.30
2019-03-19T05:27:14.552Z,-0.30
2019-03-19T05:29:45.280Z,-0.30
2019-03-19T05:32:15.878Z,-0.30
2019-03-19T05:34:46.672Z,-0.30
2019-03-19T05:37:17.282Z,-0.30
2019-03-19T05:39:47.885Z,-0.40
2019-03-19T05:42:18.545Z,-0.30
2019-03-19T05:44:49.128Z,-0.30
2019-03-19T05:47:19.712Z,-0.30
2019-03-19T05:49:50.418Z,-0.20
2019-03-19T05:52:20.995Z,-0.20
2019-03-19T05:54:51.567Z,-0.10
2019-03-19T05:57:22.600Z,-0.20
2019-03-19T05:59:53.303Z,-0.10
2019-03-19T06:02:24.318Z,-0.20
2019-03-19T06:04:54.954Z,-0.30
2019-03-19T06:07:25.571Z,-0.40
2019-03-19T06:09:56.176Z,-0.50
2019-03-19T06:12:27.173Z,-0.50
2019-03-19T06:14:57.893Z,-0.40
2019-03-19T06:17:28.843Z,-0.30
2019-03-19T06:20:00.188Z,-0.20
2019-03-19T06:22:30.811Z,-0.10
2019-03-19T06:25:01.422Z,-0.10
2019-03-19T06:27:32.002Z,-0.20
2019-03-19T06:30:02.712Z,-0.20
2019-03-19T06:32:33.389Z,-0.10
2019-03-19T06:35:04.464Z,0.00
2019-03-19T06:37:35.077Z,0.00
2019-03-19T06:40:06.062Z,0.10
2019-03-19T06:42:36.634Z,0.20
2019-03-19T06:45:09.051Z,0.30
2019-03-19T06:47:39.624Z,0.40
2019-03-19T06:50:12.102Z,0.40
2019-03-19T06:52:42.771Z,0.50
2019-03-19T06:55:13.674Z,0.60
2019-03-19T06:57:44.294Z,0.70
2019-03-19T07:00:18.188Z,0.80
2019-03-19T07:02:48.845Z,0.80
2019-03-19T07:05:19.849Z,0.90
2019-03-19T07:07:50.469Z,1.10
2019-03-19T07:10:21.178Z,1.20
2019-03-19T07:12:51.755Z,1.30
2019-03-19T07:15:22.470Z,1.40
2019-03-19T07:17:53.404Z,1.40
2019-03-19T07:20:24.029Z,1.50
2019-03-19T07:22:54.652Z,1.50
2019-03-19T07:25:25.341Z,1.60
2019-03-19T07:27:55.997Z,1.60
2019-03-19T07:30:26.974Z,1.80
2019-03-19T07:32:58.098Z,2.00
2019-03-19T07:35:28.736Z,2.10
2019-03-19T07:37:59.763Z,2.20
2019-03-19T07:40:30.360Z,2.40
2019-03-19T07:43:01.312Z,2.40
2019-03-19T07:45:32.406Z,2.40
2019-03-19T07:48:02.981Z,2.50
2019-03-19T07:50:33.642Z,2.50
2019-03-19T07:53:04.544Z,2.60
2019-03-19T07:55:35.207Z,2.60
2019-03-19T07:58:05.821Z,2.70
2019-03-19T08:00:36.502Z,2.80
2019-03-19T08:03:15.714Z,3.00
2019-03-19T08:05:39.410Z,3.20
2019-03-19T08:08:09.995Z,3.30
2019-03-19T08:10:40.986Z,3.40
2019-03-19T08:13:11.673Z,3.50
2019-03-19T08:15:42.266Z,3.60
2019-03-19T08:18:12.950Z,3.70
2019-03-19T08:20:43.510Z,3.70
2019-03-19T08:23:14.091Z,3.60
2019-03-19T08:25:44.850Z,3.50
2019-03-19T08:28:15.453Z,3.60
2019-03-19T08:30:46.043Z,3.50
2019-03-19T08:33:16.884Z,3.60
2019-03-19T08:35:48.027Z,3.80
2019-03-19T08:38:18.612Z,3.80
2019-03-19T08:40:51.003Z,3.80
2019-03-19T08:43:21.776Z,3.80
2019-03-19T08:45:52.347Z,3.80
2019-03-19T08:48:23.058Z,4.00
2019-03-19T08:50:54.094Z,4.00
2019-03-19T08:53:25.161Z,4.20
2019-03-19T08:55:55.857Z,4.40
2019-03-19T08:58:26.427Z,4.40
2019-03-19T09:00:57.071Z,4.30
2019-03-19T09:03:27.859Z,4.30
2019-03-19T09:05:58.825Z,4.40
2019-03-19T09:08:29.717Z,4.30
2019-03-19T09:11:00.561Z,4.40
2019-03-19T09:13:31.643Z,4.60
2019-03-19T09:16:02.212Z,4.80
2019-03-19T09:18:32.818Z,5.00
2019-03-19T09:21:03.613Z,5.00
2019-03-19T09:23:34.205Z,5.10
2019-03-19T09:26:04.798Z,5.40
2019-03-19T09:28:35.524Z,5.60
2019-03-19T09:31:06.199Z,5.50
2019-03-19T09:33:36.784Z,5.30
2019-03-19T09:36:07.520Z,5.40
2019-03-19T09:38:38.130Z,5.70
2019-03-19T09:41:08.720Z,5.60
2019-03-19T09:43:40.280Z,5.40
2019-03-19T09:46:10.860Z,5.50
2019-03-19T09:48:41.465Z,5.60
2019-03-19T09:51:12.098Z,5.80
2019-03-19T09:53:42.727Z,6.00
2019-03-19T09:56:13.298Z,6.30
2019-03-19T09:58:44.013Z,6.60
2019-03-19T10:01:14.953Z,6.70
2019-03-19T10:03:45.557Z,6.70
2019-03-19T10:06:16.343Z,6.90
2019-03-19T10:08:47.059Z,7.00
2019-03-19T10:11:17.643Z,6.90
2019-03-19T10:13:54.445Z,6.80
2019-03-19T10:16:25.041Z,6.90
2019-03-19T10:18:55.644Z,6.30
2019-03-19T10:21:26.431Z,6.20
2019-03-19T10:23:57.144Z,6.10
2019-03-19T10:26:27.716Z,5.90
2019-03-19T10:28:58.523Z,5.90
2019-03-19T10:31:29.702Z,6.10
2019-03-19T10:34:00.300Z,6.00
2019-03-19T10:36:31.042Z,6.10
2019-03-19T10:39:01.630Z,6.10
2019-03-19T10:41:32.206Z,6.30
2019-03-19T10:44:02.952Z,6.50
2019-03-19T10:46:33.582Z,6.50
2019-03-19T10:49:04.327Z,6.60
2019-03-19T10:51:35.340Z,6.80
2019-03-19T10:54:06.489Z,6.90
2019-03-19T10:56:38.928Z,7.00
2019-03-19T10:59:09.907Z,7.00
2019-03-19T11:01:40.789Z,6.90
2019-03-19T11:04:11.383Z,7.00
2019-03-19T11:06:42.140Z,6.90
2019-03-19T11:09:12.905Z,6.80
2019-03-19T11:11:43.481Z,6.90
2019-03-19T11:14:14.109Z,7.30
2019-03-19T11:16:45.840Z,7.60
2019-03-19T11:19:16.458Z,8.40
2019-03-19T11:21:47.038Z,8.30
2019-03-19T11:24:17.768Z,8.80
2019-03-19T11:26:48.507Z,9.30
2019-03-19T11:29:19.097Z,8.10
2019-03-19T11:31:49.860Z,9.00
2019-03-19T11:34:20.432Z,9.50
2019-03-19T11:36:57.742Z,10.00
2019-03-19T11:39:23.717Z,10.60
2019-03-19T11:41:54.348Z,9.50
2019-03-19T11:44:25.039Z,8.80
2019-03-19T11:46:55.621Z,8.30
2019-03-19T11:49:26.190Z,8.10
2019-03-19T11:51:56.959Z,7.70
2019-03-19T11:54:27.517Z,7.70
2019-03-19T11:56:58.431Z,7.80
2019-03-19T11:59:29.216Z,7.40
2019-03-19T12:02:00.126Z,7.60
2019-03-19T12:04:30.821Z,8.00
2019-03-19T12:07:01.608Z,8.00
2019-03-19T12:09:32.174Z,8.00
2019-03-19T12:12:02.788Z,8.10
2019-03-19T12:14:33.560Z,8.60
2019-03-19T12:17:04.189Z,10.20
2019-03-19T12:19:34.793Z,11.20
2019-03-19T12:22:05.567Z,12.10
2019-03-19T12:24:36.235Z,12.30
2019-03-19T12:27:06.924Z,12.90
2019-03-19T12:29:37.624Z,12.00
2019-03-19T12:32:08.505Z,12.20
2019-03-19T12:34:39.174Z,12.70
2019-03-19T12:37:09.991Z,13.00
2019-03-19T12:39:40.567Z,13.60
2019-03-19T12:42:11.160Z,12.80
2019-03-19T12:44:41.909Z,10.70
2019-03-19T12:47:12.483Z,11.50
2019-03-19T12:49:43.422Z,12.80
2019-03-19T12:52:14.136Z,11.90
2019-03-19T12:54:44.692Z,11.80
2019-03-19T12:57:16.063Z,11.70
2019-03-19T12:59:46.831Z,12.00
2019-03-19T13:02:17.406Z,12.70
2019-03-19T13:04:48.022Z,12.80
2019-03-19T13:07:19.096Z,12.60
2019-03-19T13:09:49.972Z,11.50
2019-03-19T13:12:20.549Z,11.70
2019-03-19T13:14:51.241Z,11.50
2019-03-19T13:17:21.983Z,11.10
2019-03-19T13:19:52.823Z,12.10
2019-03-19T13:22:23.400Z,12.60
2019-03-19T13:24:54.189Z,13.00
2019-03-19T13:27:24.771Z,12.90
2019-03-19T13:29:55.987Z,12.60
2019-03-19T13:32:28.325Z,12.60
2019-03-19T13:34:59.155Z,12.30
2019-03-19T13:37:29.747Z,12.20
2019-03-19T13:40:00.506Z,12.50
2019-03-19T13:42:31.131Z,13.30
2019-03-19T13:45:01.744Z,13.50
2019-03-19T13:47:32.519Z,13.20
2019-03-19T13:50:03.549Z,12.40
2019-03-19T13:52:34.111Z,12.90
2019-03-19T13:55:06.023Z,13.40
2019-03-19T13:57:36.953Z,14.10
2019-03-19T14:00:09.251Z,13.40
2019-03-19T14:02:40.008Z,11.90
2019-03-19T14:05:10.963Z,12.60
2019-03-19T14:07:41.558Z,13.40
2019-03-19T14:10:12.654Z,12.70
2019-03-19T14:12:43.223Z,13.60
2019-03-19T14:15:15.552Z,13.40
2019-03-19T14:17:46.109Z,12.00
2019-03-19T14:20:17.368Z,12.90
2019-03-19T14:22:47.915Z,14.10
2019-03-19T14:25:18.700Z,14.30
2019-03-19T14:27:49.472Z,14.70
2019-03-19T14:30:20.057Z,15.40
2019-03-19T14:32:50.977Z,14.90
2019-03-19T14:35:21.692Z,13.70
2019-03-19T14:37:52.282Z,14.30
2019-03-19T14:40:23.043Z,13.80
2019-03-19T14:42:53.783Z,11.70
2019-03-19T14:45:24.350Z,12.00
2019-03-19T14:47:55.057Z,11.50
2019-03-19T14:50:25.650Z,11.10
2019-03-19T14:52:56.226Z,10.20
2019-03-19T14:55:27.528Z,9.60
2019-03-19T14:57:58.104Z,10.00
2019-03-19T15:00:28.674Z,9.90
2019-03-19T15:02:59.453Z,9.90
2019-03-19T15:05:29.989Z,10.30
2019-03-19T15:08:00.579Z,11.80
2019-03-19T15:10:31.148Z,12.70
2019-03-19T15:13:01.733Z,13.90
2019-03-19T15:15:32.319Z,14.40
2019-03-19T15:18:02.892Z,13.90
2019-03-19T15:20:33.676Z,13.90
2019-03-19T15:23:04.236Z,14.80
2019-03-19T15:25:35.203Z,15.50
2019-03-19T15:28:05.961Z,15.80
2019-03-19T15:30:36.530Z,16.00
2019-03-19T15:33:07.090Z,15.50
2019-03-19T15:35:37.863Z,16.40
2019-03-19T15:38:08.451Z,14.60
2019-03-19T15:40:39.050Z,13.30
2019-03-19T15:43:09.766Z,13.00
2019-03-19T15:45:40.338Z,13.30
2019-03-19T15:48:10.919Z,14.00
2019-03-19T15:50:41.989Z,13.40
2019-03-19T15:53:12.553Z,13.40
2019-03-19T15:55:43.457Z,14.30
2019-03-19T15:58:14.147Z,14.70
2019-03-19T16:00:44.723Z,14.30
2019-03-19T16:03:15.313Z,13.50
2019-03-19T16:05:46.381Z,13.10
2019-03-19T16:08:16.964Z,13.90
2019-03-19T16:10:47.570Z,14.50
2019-03-19T16:13:18.241Z,14.20
2019-03-19T16:15:49.216Z,14.00
2019-03-19T16:18:19.809Z,13.70
2019-03-19T16:20:50.398Z,14.50
2019-03-19T16:23:20.970Z,13.50
2019-03-19T16:25:51.839Z,12.30
2019-03-19T16:28:22.409Z,11.30
2019-03-19T16:30:52.986Z,10.50
2019-03-19T16:33:23.954Z,10.00
2019-03-19T16:35:54.853Z,9.70
2019-03-19T16:38:25.422Z,9.40
2019-03-19T16:40:56.083Z,9.00
2019-03-19T16:43:26.675Z,8.90
2019-03-19T16:45:57.269Z,8.80
2019-03-19T16:48:27.909Z,8.70
2019-03-19T16:50:58.490Z,8.70
2019-03-19T16:53:29.055Z,8.70
2019-03-19T16:56:00.032Z,8.60
2019-03-19T16:58:30.608Z,8.50
2019-03-19T17:01:01.192Z,8.50
2019-03-19T17:03:31.811Z,8.40
2019-03-19T17:06:03.031Z,8.50
2019-03-19T17:08:33.939Z,8.40
2019-03-19T17:11:04.633Z,8.20
2019-03-19T17:13:35.206Z,8.10
2019-03-19T17:16:05.763Z,8.10
2019-03-19T17:18:36.423Z,8.00
2019-03-19T17:21:07.340Z,8.00
2019-03-19T17:23:37.910Z,7.90
2019-03-19T17:26:08.460Z,7.80
2019-03-19T17:28:39.140Z,7.80
2019-03-19T17:31:09.707Z,7.80
2019-03-19T17:33:40.311Z,7.70
2019-03-19T17:36:10.927Z,7.50
2019-03-19T17:38:41.606Z,7.50
2019-03-19T17:41:12.266Z,7.50
2019-03-19T17:43:42.942Z,7.50
2019-03-19T17:46:13.658Z,7.50
2019-03-19T17:48:44.925Z,7.40
2019-03-19T17:51:15.907Z,7.20
2019-03-19T17:53:46.592Z,7.10
2019-03-19T17:56:17.439Z,7.00
2019-03-19T17:58:48.002Z,6.90
2019-03-19T18:01:18.671Z,6.90
2019-03-19T18:03:49.261Z,6.70
2019-03-19T18:06:19.825Z,6.70
2019-03-19T18:08:50.637Z,6.60
2019-03-19T18:11:21.219Z,6.50
2019-03-19T18:13:51.820Z,6.40
2019-03-19T18:16:22.753Z,6.30
2019-03-19T18:18:53.467Z,6.20
2019-03-19T18:21:24.365Z,6.10
2019-03-19T18:23:55.087Z,6.20
2019-03-19T18:26:25.673Z,6.20
2019-03-19T18:28:56.248Z,6.20
2019-03-19T18:31:26.906Z,6.10
2019-03-19T18:33:57.493Z,6.10
2019-03-19T18:36:28.186Z,6.00
2019-03-19T18:38:59.335Z,5.90
2019-03-19T18:41:29.903Z,5.90
2019-03-19T18:44:00.501Z,5.80
2019-03-19T18:46:31.497Z,5.70
2019-03-19T18:49:02.113Z,5.70
2019-03-19T18:51:32.704Z,5.70
2019-03-19T18:54:03.391Z,5.70
2019-03-19T18:56:33.964Z,5.50
2019-03-19T18:59:05.156Z,5.40
2019-03-19T19:01:35.862Z,5.30
2019-03-19T19:04:06.646Z,5.20
2019-03-19T19:06:37.567Z,5.20
2019-03-19T19:09:10.012Z,5.10
2019-03-19T19:11:40.608Z,5.10
2019-03-19T19:14:11.193Z,5.00
2019-03-19T19:16:41.921Z,4.90
2019-03-19T19:19:13.202Z,4.90
2019-03-19T19:21:43.791Z,4.90
2019-03-19T19:24:15.404Z,4.80
2019-03-19T19:26:45.988Z,4.80
2019-03-19T19:29:16.693Z,4.80
2019-03-19T19:31:47.574Z,4.80
2019-03-19T19:34:18.448Z,4.70
2019-03-19T19:36:49.228Z,4.70
2019-03-19T19:39:20.166Z,4.70
2019-03-19T19:41:51.050Z,4.60
2019-03-19T19:44:21.831Z,4.50
2019-03-19T19:46:52.415Z,4.40
2019-03-19T19:49:22.999Z,4.30
2019-03-19T19:51:54.457Z,4.40
2019-03-19T19:54:25.029Z,4.30
2019-03-19T19:56:55.928Z,4.20
2019-03-19T19:59:26.627Z,4.30
2019-03-19T20:01:57.195Z,4.20
2019-03-19T20:04:27.780Z,4.10
2019-03-19T20:06:58.476Z,4.00
2019-03-19T20:09:29.049Z,4.00
2019-03-19T20:11:59.632Z,4.00
2019-03-19T20:14:30.311Z,4.00
2019-03-19T20:17:00.935Z,3.90
2019-03-19T20:19:31.897Z,3.90
2019-03-19T20:22:02.504Z,4.00
2019-03-19T20:24:33.252Z,3.90
2019-03-19T20:27:03.956Z,3.90
2019-03-19T20:29:37.100Z,3.80
2019-03-19T20:32:07.405Z,3.80
2019-03-19T20:34:39.923Z,3.70
2019-03-19T20:37:10.894Z,3.70
2019-03-19T20:39:42.283Z,3.50
2019-03-19T20:42:13.055Z,3.40
2019-03-19T20:44:43.769Z,3.40
2019-03-19T20:47:14.493Z,3.40
2019-03-19T20:49:47.889Z,3.50
2019-03-19T20:52:19.580Z,3.60
2019-03-19T20:54:52.581Z,3.60
2019-03-19T20:57:24.690Z,3.60
2019-03-19T20:59:57.517Z,3.70
2019-03-19T21:02:29.591Z,3.70
2019-03-19T21:05:03.291Z,3.70
2019-03-19T21:07:35.263Z,3.70
2019-03-19T21:10:08.281Z,3.80
2019-03-19T21:12:41.862Z,3.80
2019-03-19T21:15:19.162Z,3.60
2019-03-19T21:17:50.075Z,3.20
2019-03-19T21:20:21.079Z,3.00
2019-03-19T21:22:52.127Z,2.90
2019-03-19T21:25:23.137Z,2.90
2019-03-19T21:27:54.547Z,2.80
2019-03-19T21:30:25.618Z,2.70
2019-03-19T21:32:56.499Z,2.60
2019-03-19T21:35:27.387Z,2.60
2019-03-19T21:37:58.245Z,2.70
2019-03-19T21:40:29.249Z,2.80
2019-03-19T21:43:00.116Z,2.80
2019-03-19T21:45:30.983Z,2.70
2019-03-19T21:48:02.225Z,2.70
2019-03-19T21:50:32.913Z,2.70
2019-03-19T21:53:03.950Z,2.90
2019-03-19T21:55:34.791Z,3.00
2019-03-19T21:58:05.579Z,3.00
2019-03-19T22:00:36.589Z,3.10
2019-03-19T22:03:07.441Z,3.20
2019-03-19T22:05:38.090Z,3.20
2019-03-19T22:08:08.834Z,3.20
2019-03-19T22:10:39.682Z,3.20
2019-03-19T22:13:10.335Z,3.20
2019-03-19T22:15:41.049Z,3.20
2019-03-19T22:18:11.807Z,3.20
2019-03-19T22:20:42.651Z,3.20
2019-03-19T22:23:13.467Z,3.10
2019-03-19T22:25:44.424Z,3.00
2019-03-19T22:28:15.040Z,2.60
2019-03-19T22:30:46.126Z,2.50
2019-03-19T22:33:17.230Z,2.40
2019-03-19T22:35:48.252Z,2.30
2019-03-19T22:38:19.091Z,2.10
2019-03-19T22:40:49.864Z,2.00
2019-03-19T22:43:20.905Z,1.90
2019-03-19T22:45:51.721Z,1.90
2019-03-19T22:48:22.471Z,2.00
2019-03-19T22:50:53.410Z,2.10
2019-03-19T22:53:24.731Z,2.20
2019-03-19T22:55:56.085Z,2.30
2019-03-19T22:58:26.744Z,2.30
2019-03-19T23:00:57.773Z,2.20
2019-03-19T23:03:28.842Z,2.10
2019-03-19T23:05:59.432Z,2.10
2019-03-19T23:08:30.384Z,2.10
2019-03-19T23:11:00.990Z,2.00
2019-03-19T23:13:31.706Z,1.90
2019-03-19T23:16:02.314Z,1.90
2019-03-19T23:18:32.933Z,2.00
2019-03-19T23:21:04.032Z,2.00
2019-03-19T23:23:34.633Z,2.10
2019-03-19T23:26:05.442Z,2.10
2019-03-19T23:28:36.547Z,2.20
2019-03-19T23:31:07.146Z,2.30
2019-03-19T23:33:38.175Z,2.40
2019-03-19T23:36:08.958Z,2.60
2019-03-19T23:38:39.538Z,2.50
2019-03-19T23:41:10.131Z,2.40
2019-03-19T23:43:40.922Z,2.30
2019-03-19T23:46:11.532Z,2.20
2019-03-19T23:48:42.103Z,2.10
2019-03-19T23:51:12.822Z,2.10
2019-03-19T23:53:43.775Z,1.90
2019-03-19T23:56:14.716Z,1.80
2019-03-19T23:58:45.436Z,1.80
